Time;durP1;ratioP1;P1;durP2;ratioP2;P2;SDS_P1;SDS_P2;PMS_P1;PMS_P2;Temp;Humidity;BMP_temperature;BMP_pressure;BME280_temperature;BME280_humidity;BME280_pressure;Samples;Min_cycle;Max_cycle;Signal;HPM_P1;HPM_P2
2022/10/04 00:00:38;;;;;;;35.47;33.40;;;7.00;99.90;;;;;;5091064;28;20208;-77
2022/10/04 00:03:29;;;;;;;25.70;23.37;;;7.00;99.90;;;;;;5094732;28;20732;-77
2022/10/04 00:05:58;;;;;;;12.93;12.00;;;6.90;99.90;;;;;;5110978;28;20561;-77
2022/10/04 00:08:39;;;;;;;31.40;29.17;;;6.90;99.90;;;;;;5110857;28;20211;-77
2022/10/04 00:11:18;;;;;;;32.60;29.33;;;6.90;99.90;;;;;;5111333;28;20184;-77
2022/10/04 00:13:54;;;;;;;40.70;29.27;;;6.90;99.90;;;;;;5101644;28;20728;-77
2022/10/04 00:16:25;;;;;;;57.23;42.93;;;7.00;99.90;;;;;;5089471;28;20761;-77
2022/10/04 00:19:41;;;;;;;52.53;40.50;;;6.90;99.90;;;;;;5090547;28;20265;-77
2022/10/04 00:22:09;;;;;;;58.13;13.07;;;6.90;99.90;;;;;;5086355;28;20185;-77
2022/10/04 00:24:36;;;;;;;50.67;14.00;;;7.00;99.90;;;;;;5106716;28;20596;-77
2022/10/04 00:27:22;;;;;;;64.70;12.57;;;7.00;99.90;;;;;;5109478;28;20244;-77
2022/10/04 00:30:00;;;;;;;49.30;15.00;;;7.10;99.90;;;;;;5111378;28;20245;-77
2022/10/04 00:32:59;;;;;;;43.10;15.57;;;7.10;99.90;;;;;;5109748;28;20188;-77
2022/10/04 00:35:25;;;;;;;37.27;26.70;;;7.20;99.90;;;;;;5066235;28;20205;-76
2022/10/04 00:37:57;;;;;;;66.43;33.70;;;7.30;99.90;;;;;;5070158;28;20202;-77
2022/10/04 00:40:28;;;;;;;60.70;27.50;;;7.40;99.90;;;;;;5069354;28;20185;-77
2022/10/04 00:43:12;;;;;;;141.77;17.43;;;7.40;99.90;;;;;;5072277;28;20646;-77
2022/10/04 00:45:45;;;;;;;105.90;14.73;;;7.50;99.90;;;;;;5111301;28;20233;-77
2022/10/04 00:48:33;;;;;;;120.27;18.37;;;7.50;99.90;;;;;;5109537;28;20283;-77
2022/10/04 00:51:23;;;;;;;232.20;21.17;;;7.50;99.90;;;;;;5109576;28;20181;-77
2022/10/04 00:54:05;;;;;;;165.13;46.17;;;7.40;99.90;;;;;;5100612;28;20197;-77
2022/10/04 00:57:06;;;;;;;113.07;56.37;;;7.40;99.90;;;;;;5090425;28;20581;-77
2022/10/04 00:59:51;;;;;;;86.63;14.13;;;7.30;99.90;;;;;;5067173;28;20193;-77
2022/10/04 01:02:32;;;;;;;95.53;16.87;;;7.20;99.90;;;;;;5088872;28;20180;-77
2022/10/04 01:05:09;;;;;;;190.80;56.43;;;7.10;99.90;;;;;;5089357;28;20192;-77
2022/10/04 01:07:43;;;;;;;129.37;37.93;;;7.00;99.90;;;;;;5088524;28;20212;-77
2022/10/04 01:10:30;;;;;;;74.93;37.47;;;6.80;99.90;;;;;;5089255;28;20192;-77
2022/10/04 01:13:24;;;;;;;242.73;39.33;;;6.80;99.90;;;;;;5091065;28;20187;-77
2022/10/04 01:16:13;;;;;;;87.77;34.00;;;6.80;99.90;;;;;;5110803;28;20233;-77
2022/10/04 01:18:39;;;;;;;99.00;33.53;;;6.90;99.90;;;;;;5112347;28;20176;-77
2022/10/04 01:21:18;;;;;;;90.67;36.10;;;6.90;99.90;;;;;;5114447;28;20192;-77
2022/10/04 01:23:57;;;;;;;63.20;30.03;;;6.90;99.90;;;;;;5105324;28;20664;-77
2022/10/04 01:26:35;;;;;;;86.47;41.73;;;6.90;99.90;;;;;;5105136;28;20573;-77
2022/10/04 01:29:15;;;;;;;130.83;16.87;;;6.80;99.90;;;;;;5114360;28;20595;-78
2022/10/04 01:31:49;;;;;;;114.27;13.93;;;6.70;99.90;;;;;;5128559;28;20183;-77
2022/10/04 01:34:21;;;;;;;144.03;12.90;;;6.70;99.90;;;;;;5102379;28;20203;-77
2022/10/04 01:36:48;;;;;;;44.10;23.27;;;6.70;99.90;;;;;;5092268;28;20204;-77
2022/10/04 01:39:16;;;;;;;58.90;26.33;;;6.70;99.90;;;;;;5092498;28;20173;-78
2022/10/04 01:41:57;;;;;;;132.63;20.10;;;6.70;99.90;;;;;;5093520;28;20264;-77
2022/10/04 01:44:36;;;;;;;30.80;11.00;;;6.70;99.90;;;;;;5104531;28;20180;-77
2022/10/04 01:47:06;;;;;;;60.37;12.93;;;6.80;99.90;;;;;;5113866;28;20565;-77
2022/10/04 01:49:35;;;;;;;17.77;11.23;;;6.80;99.90;;;;;;5112634;28;20220;-77
2022/10/04 01:52:33;;;;;;;49.20;27.27;;;6.80;99.90;;;;;;5106643;28;20180;-77
2022/10/04 01:55:06;;;;;;;34.17;24.03;;;6.90;99.90;;;;;;5095904;28;20214;-77
2022/10/04 01:57:40;;;;;;;27.50;17.83;;;6.80;99.90;;;;;;5094223;28;20197;-78
2022/10/04 02:00:12;;;;;;;32.20;10.40;;;6.80;99.90;;;;;;5112197;28;20206;-79
2022/10/04 02:02:50;;;;;;;16.27;10.33;;;6.80;99.90;;;;;;5111879;28;20185;-78
2022/10/04 02:05:25;;;;;;;38.67;34.90;;;6.80;99.90;;;;;;5125484;28;20263;-79
2022/10/04 02:07:53;;;;;;;32.30;30.20;;;6.70;99.90;;;;;;5125658;27;20268;-79
2022/10/04 02:10:21;;;;;;;32.73;18.00;;;6.70;99.90;;;;;;5126138;28;20210;-78
2022/10/04 02:12:49;;;;;;;43.73;17.40;;;6.70;99.90;;;;;;5125649;28;20192;-78
2022/10/04 02:15:18;;;;;;;36.90;12.13;;;6.60;99.90;;;;;;5106283;28;20215;-78
2022/10/04 02:17:46;;;;;;;15.60;11.03;;;6.70;99.90;;;;;;5099391;28;20251;-78
2022/10/04 02:20:22;;;;;;;37.93;12.37;;;6.80;99.90;;;;;;5097533;28;20181;-79
2022/10/04 02:22:58;;;;;;;47.70;24.47;;;6.80;99.90;;;;;;5095716;28;20177;-78
2022/10/04 02:25:25;;;;;;;47.63;39.97;;;6.80;99.90;;;;;;5116244;28;20187;-78
2022/10/04 02:27:54;;;;;;;72.90;38.27;;;6.60;99.90;;;;;;5115554;28;20260;-78
2022/10/04 02:30:21;;;;;;;118.63;13.80;;;6.50;99.90;;;;;;5109226;27;20542;-78
2022/10/04 02:32:56;;;;;;;51.70;17.30;;;6.50;99.90;;;;;;5095731;28;20173;-78
2022/10/04 02:35:44;;;;;;;58.17;18.10;;;6.50;99.90;;;;;;5095500;28;20180;-78
2022/10/04 02:38:22;;;;;;;29.13;24.10;;;6.50;99.90;;;;;;5094550;28;20643;-78
2022/10/04 02:40:56;;;;;;;53.53;22.47;;;6.40;99.90;;;;;;5094006;28;20715;-78
2022/10/04 02:43:28;;;;;;;32.70;17.07;;;6.30;99.90;;;;;;5093873;28;20657;-78
2022/10/04 02:46:10;;;;;;;64.27;15.50;;;6.30;99.90;;;;;;5087134;28;20194;-77
2022/10/04 02:48:45;;;;;;;32.20;14.17;;;6.50;99.90;;;;;;5088116;28;20216;-78
2022/10/04 02:51:17;;;;;;;28.33;15.03;;;6.50;99.90;;;;;;5101531;28;20180;-78
2022/10/04 02:54:00;;;;;;;48.90;12.47;;;6.50;99.90;;;;;;5101461;28;20276;-78
2022/10/04 02:56:26;;;;;;;35.93;28.73;;;6.50;99.90;;;;;;5119180;28;20202;-78
2022/10/04 02:58:53;;;;;;;45.13;32.47;;;6.50;99.90;;;;;;5119165;28;20188;-78
2022/10/04 03:01:39;;;;;;;19.77;15.07;;;6.50;99.90;;;;;;5117642;28;20676;-78
2022/10/04 03:04:05;;;;;;;49.07;45.13;;;6.60;99.90;;;;;;5109992;28;20181;-78
2022/10/04 03:06:32;;;;;;;50.07;38.77;;;6.50;99.90;;;;;;5106898;28;20217;-78
2022/10/04 03:09:04;;;;;;;49.70;17.40;;;6.40;99.90;;;;;;5119171;28;20552;-78
2022/10/04 03:11:39;;;;;;;34.33;27.00;;;6.40;99.90;;;;;;5113432;28;20196;-78
2022/10/04 03:14:14;;;;;;;22.93;10.00;;;6.40;99.90;;;;;;5105821;28;20200;-78
2022/10/04 03:16:44;;;;;;;26.17;12.97;;;6.40;99.90;;;;;;5108861;28;20196;-78
2022/10/04 03:19:12;;;;;;;47.60;10.83;;;6.40;99.90;;;;;;5091593;28;20688;-77
2022/10/04 03:21:39;;;;;;;47.40;11.30;;;6.30;99.90;;;;;;5093732;28;20177;-78
2022/10/04 03:24:06;;;;;;;14.33;11.63;;;6.20;99.90;;;;;;5098111;28;20207;-78
2022/10/04 03:26:48;;;;;;;55.60;11.27;;;6.30;99.90;;;;;;5099213;28;20222;-78
2022/10/04 03:29:16;;;;;;;33.07;11.70;;;6.30;99.90;;;;;;5098880;28;20185;-78
2022/10/04 03:31:56;;;;;;;94.00;15.07;;;6.30;99.90;;;;;;5098344;28;20218;-78
2022/10/04 03:34:40;;;;;;;58.70;24.93;;;6.30;99.90;;;;;;5115986;28;20215;-78
2022/10/04 03:37:11;;;;;;;155.57;21.47;;;6.10;99.90;;;;;;5113932;28;20191;-78
2022/10/04 03:39:46;;;;;;;182.27;31.20;;;6.10;99.90;;;;;;5114284;28;20592;-77
2022/10/04 03:42:19;;;;;;;91.47;24.17;;;6.10;99.90;;;;;;5117512;28;20183;-78
2022/10/04 03:44:46;;;;;;;44.23;19.90;;;6.10;99.90;;;;;;5123663;28;20212;-79
2022/10/04 03:47:25;;;;;;;57.07;21.47;;;6.20;99.90;;;;;;5121944;28;20208;-79
2022/10/04 03:49:53;;;;;;;43.43;35.43;;;6.20;99.90;;;;;;5120168;28;20277;-82
2022/10/04 03:52:23;;;;;;;50.20;26.17;;;6.20;99.90;;;;;;5112819;28;20256;-77
2022/10/04 03:54:54;;;;;;;23.23;10.03;;;6.20;99.90;;;;;;5111150;28;20207;-78
2022/10/04 03:57:20;;;;;;;20.63;8.97;;;6.10;99.90;;;;;;5111429;28;20199;-78
2022/10/04 03:59:46;;;;;;;62.63;17.87;;;6.10;99.90;;;;;;5096225;28;20188;-78
2022/10/04 04:02:25;;;;;;;28.17;9.73;;;6.10;99.90;;;;;;5096649;28;20199;-78
2022/10/04 04:05:28;;;;;;;39.63;11.07;;;6.10;99.90;;;;;;5098229;28;20190;-78
2022/10/04 04:08:11;;;;;;;31.27;28.47;;;6.00;99.90;;;;;;5125641;22;20235;-77
2022/10/04 04:10:42;;;;;;;17.00;9.70;;;6.00;99.90;;;;;;5115851;28;20244;-77
2022/10/04 04:13:10;;;;;;;19.03;16.93;;;6.00;99.90;;;;;;5113083;28;20186;-76
2022/10/04 04:15:44;;;;;;;22.07;16.90;;;6.10;99.90;;;;;;5094798;28;20609;-77
2022/10/04 04:18:20;;;;;;;16.13;14.53;;;6.20;99.90;;;;;;5094278;28;20196;-76
2022/10/04 04:20:50;;;;;;;25.37;13.73;;;6.20;99.90;;;;;;5112772;28;20210;-76
2022/10/04 04:23:35;;;;;;;25.37;21.67;;;6.30;99.90;;;;;;5094638;28;20184;-76
2022/10/04 04:26:24;;;;;;;21.53;19.77;;;6.20;99.90;;;;;;5113830;28;20187;-77
2022/10/04 04:29:04;;;;;;;35.70;24.27;;;6.30;99.90;;;;;;5114599;28;20287;-77
2022/10/04 04:31:41;;;;;;;69.87;12.43;;;6.20;99.90;;;;;;5114241;28;20188;-77
2022/10/04 04:34:30;;;;;;;25.07;8.97;;;6.20;99.90;;;;;;5114551;28;20221;-77
2022/10/04 04:37:02;;;;;;;23.97;8.57;;;6.10;99.90;;;;;;5095052;28;20580;-76
2022/10/04 04:39:48;;;;;;;14.50;9.63;;;6.20;99.90;;;;;;5095868;28;20180;-77
2022/10/04 04:42:28;;;;;;;23.47;9.13;;;6.00;99.90;;;;;;5113093;28;20206;-77
2022/10/04 04:45:04;;;;;;;16.27;7.30;;;6.00;99.90;;;;;;5095478;28;20184;-77
2022/10/04 04:47:41;;;;;;;15.17;7.63;;;6.00;99.90;;;;;;5119938;28;20327;-77
2022/10/04 04:50:12;;;;;;;13.70;7.47;;;6.10;99.90;;;;;;5122000;28;20188;-77
2022/10/04 04:52:38;;;;;;;12.03;6.60;;;6.10;99.90;;;;;;5119667;28;20600;-76
2022/10/04 04:55:05;;;;;;;16.10;8.03;;;6.00;99.90;;;;;;5116559;28;20207;-77
2022/10/04 04:57:32;;;;;;;13.23;9.17;;;6.00;99.90;;;;;;5116434;28;20204;-77
2022/10/04 05:00:00;;;;;;;15.50;8.07;;;6.00;99.90;;;;;;5118997;28;20271;-77
2022/10/04 05:02:34;;;;;;;19.63;10.50;;;6.10;99.90;;;;;;5108985;28;20181;-77
2022/10/04 05:05:33;;;;;;;43.63;12.27;;;6.20;99.90;;;;;;5126179;28;20180;-76
2022/10/04 05:08:27;;;;;;;48.80;13.60;;;6.20;99.90;;;;;;5079855;28;20593;-77
2022/10/04 05:11:08;;;;;;;21.37;11.00;;;6.20;99.90;;;;;;5101685;28;20183;-75
2022/10/04 05:13:40;;;;;;;36.47;12.37;;;6.20;99.90;;;;;;5118115;28;20202;-77
2022/10/04 05:16:15;;;;;;;30.43;13.13;;;6.20;99.90;;;;;;5119247;28;20642;-77
2022/10/04 05:18:41;;;;;;;42.77;10.43;;;6.20;99.90;;;;;;5116386;28;20790;-77
2022/10/04 05:21:20;;;;;;;18.60;10.40;;;6.10;99.90;;;;;;5098658;28;20671;-76
2022/10/04 05:23:46;;;;;;;19.43;14.50;;;6.00;99.90;;;;;;5118051;28;20423;-77
2022/10/04 05:26:13;;;;;;;22.00;14.23;;;6.10;99.90;;;;;;5121418;28;20225;-77
2022/10/04 05:28:40;;;;;;;35.97;10.87;;;6.10;99.90;;;;;;5105322;28;20207;-75
2022/10/04 05:31:29;;;;;;;15.77;14.03;;;6.20;99.90;;;;;;5114326;28;20173;-74
2022/10/04 05:33:57;;;;;;;25.67;13.27;;;6.10;99.90;;;;;;5095798;28;20253;-75
2022/10/04 05:36:41;;;;;;;17.37;15.77;;;6.10;99.90;;;;;;5113577;28;20207;-75
2022/10/04 05:39:47;;;;;;;53.27;50.17;;;6.10;99.90;;;;;;5113738;28;20177;-75
2022/10/04 05:42:22;;;;;;;27.03;23.63;;;6.00;99.90;;;;;;5023436;28;20218;-76
2022/10/04 05:44:51;;;;;;;41.97;33.60;;;6.00;99.90;;;;;;5114062;28;20183;-74
2022/10/04 05:47:23;;;;;;;33.80;11.27;;;6.00;99.90;;;;;;5095481;28;20203;-76
2022/10/04 05:49:52;;;;;;;69.90;12.97;;;6.00;99.90;;;;;;5096507;28;20663;-76
2022/10/04 05:52:36;;;;;;;13.27;8.53;;;6.10;99.90;;;;;;5114034;28;20826;-76
2022/10/04 05:55:11;;;;;;;37.83;10.27;;;6.10;99.90;;;;;;5096649;28;20620;-77
2022/10/04 05:57:55;;;;;;;22.47;8.83;;;6.20;99.90;;;;;;5113393;28;20214;-76
2022/10/04 06:00:44;;;;;;;28.23;9.90;;;6.10;99.90;;;;;;5095713;28;20174;-76
2022/10/04 06:03:42;;;;;;;16.10;12.70;;;6.20;99.90;;;;;;5061006;28;20184;-76
2022/10/04 06:06:15;;;;;;;23.93;10.93;;;6.30;99.90;;;;;;5114467;28;20202;-76
2022/10/04 06:09:07;;;;;;;43.00;19.53;;;6.30;99.90;;;;;;5112690;28;20265;-76
2022/10/04 06:11:48;;;;;;;29.10;12.10;;;6.40;99.90;;;;;;5095883;28;20179;-75
2022/10/04 06:14:38;;;;;;;55.70;12.70;;;6.40;99.90;;;;;;5113064;28;20295;-76
2022/10/04 06:17:25;;;;;;;27.87;10.77;;;6.40;99.90;;;;;;5099907;28;20197;-76
2022/10/04 06:20:12;;;;;;;25.47;11.03;;;6.40;99.90;;;;;;5095046;28;20198;-76
2022/10/04 06:22:46;;;;;;;22.63;20.73;;;6.40;99.90;;;;;;5114350;28;20545;-76
2022/10/04 06:25:25;;;;;;;41.60;37.10;;;6.30;99.90;;;;;;5113421;28;20194;-76
2022/10/04 06:28:06;;;;;;;32.13;29.30;;;6.40;99.90;;;;;;5094372;28;20687;-76
2022/10/04 06:31:02;;;;;;;39.00;36.63;;;6.40;99.90;;;;;;5113212;28;20614;-76
2022/10/04 06:33:53;;;;;;;34.53;31.90;;;6.50;99.90;;;;;;5098570;28;20220;-76
2022/10/04 06:36:51;;;;;;;36.00;32.40;;;6.50;99.90;;;;;;5097405;28;20180;-76
2022/10/04 06:40:08;;;;;;;27.70;25.60;;;6.50;99.90;;;;;;5123509;28;20187;-76
2022/10/04 06:43:08;;;;;;;15.37;13.87;;;6.50;99.90;;;;;;5094408;28;20619;-76
2022/10/04 06:45:43;;;;;;;12.60;10.87;;;6.60;99.90;;;;;;5094607;28;20546;-76
2022/10/04 06:48:11;;;;;;;13.73;12.53;;;6.70;99.90;;;;;;5093974;28;20569;-76
2022/10/04 06:50:43;;;;;;;22.77;21.50;;;6.80;99.90;;;;;;5112538;28;20195;-76
2022/10/04 06:53:17;;;;;;;36.50;34.47;;;6.90;99.90;;;;;;5118026;28;20191;-77
2022/10/04 06:55:52;;;;;;;64.43;60.70;;;6.90;99.90;;;;;;5099256;28;20233;-76
2022/10/04 06:58:39;;;;;;;45.80;43.00;;;6.90;99.90;;;;;;5117577;28;20214;-76
2022/10/04 07:01:13;;;;;;;58.67;55.57;;;7.10;99.90;;;;;;5102442;28;20645;-77
2022/10/04 07:04:32;;;;;;;19.07;17.97;;;7.20;99.90;;;;;;5119286;28;20651;-77
2022/10/04 07:07:23;;;;;;;11.50;10.60;;;7.40;99.90;;;;;;5035895;28;20216;-76
2022/10/04 07:10:07;;;;;;;16.57;15.43;;;7.50;99.90;;;;;;5094836;28;20189;-72
2022/10/04 07:12:39;;;;;;;40.13;37.97;;;7.70;99.90;;;;;;5093768;28;20258;-73
2022/10/04 07:15:15;;;;;;;32.63;30.70;;;7.80;99.90;;;;;;5110943;28;20235;-72
2022/10/04 07:17:44;;;;;;;15.17;14.10;;;7.80;99.90;;;;;;5093126;28;20690;-72
2022/10/04 07:20:28;;;;;;;9.80;9.20;;;8.00;99.90;;;;;;5111508;28;20653;-72
2022/10/04 07:22:59;;;;;;;9.40;8.60;;;8.10;99.90;;;;;;5097290;28;20182;-77
2022/10/04 07:25:33;;;;;;;14.60;13.80;;;8.20;99.90;;;;;;5097446;28;20180;-77
2022/10/04 07:31:02;;;;;;;9.57;8.97;;;8.30;99.90;;;;;;5095330;28;20279;-77
2022/10/04 07:33:33;;;;;;;10.83;10.20;;;8.40;99.90;;;;;;5076491;28;20237;-77
2022/10/04 07:36:11;;;;;;;45.23;43.00;;;8.60;99.90;;;;;;5078096;28;20285;-78
2022/10/04 07:39:00;;;;;;;56.17;53.20;;;8.60;99.90;;;;;;5094440;28;20192;-77
2022/10/04 07:41:48;;;;;;;52.00;49.13;;;8.60;99.90;;;;;;5077063;28;20176;-77
2022/10/04 07:44:19;;;;;;;37.33;35.17;;;8.70;99.90;;;;;;5095086;28;20215;-77
2022/10/04 07:47:01;;;;;;;21.37;20.27;;;8.80;99.90;;;;;;5077107;28;20552;-78
2022/10/04 07:49:27;;;;;;;19.53;18.27;;;8.90;99.90;;;;;;5095891;28;20181;-78
2022/10/04 07:51:56;;;;;;;17.73;16.63;;;9.00;99.90;;;;;;5097426;28;20783;-77
2022/10/04 07:54:46;;;;;;;13.80;13.07;;;9.10;99.90;;;;;;5079793;28;20593;-77
2022/10/04 07:57:18;;;;;;;12.20;11.23;;;9.20;99.90;;;;;;5070644;28;20204;-78
2022/10/04 08:00:09;;;;;;;8.40;7.90;;;9.20;99.90;;;;;;5081776;28;20185;-77
2022/10/04 08:03:10;;;;;;;8.87;8.13;;;9.40;99.90;;;;;;5078520;28;20172;-78
2022/10/04 08:05:42;;;;;;;9.10;8.13;;;9.60;99.90;;;;;;5098573;28;20824;-78
2022/10/04 08:08:23;;;;;;;10.00;9.30;;;9.80;99.90;;;;;;5115613;28;20687;-78
2022/10/04 08:10:51;;;;;;;9.63;8.93;;;9.80;99.90;;;;;;5096055;28;20211;-77
2022/10/04 08:14:14;;;;;;;10.77;9.87;;;10.00;99.90;;;;;;5114974;28;20221;-78
2022/10/04 08:16:53;;;;;;;11.70;10.67;;;10.30;99.90;;;;;;4972131;28;20272;-78
2022/10/04 08:19:40;;;;;;;19.63;18.60;;;10.70;99.90;;;;;;4971244;28;20187;-78
2022/10/04 08:22:51;;;;;;;12.53;11.70;;;11.00;99.90;;;;;;5059248;28;20189;-78
2022/10/04 08:25:25;;;;;;;9.47;6.63;;;11.30;99.90;;;;;;5072297;28;20196;-77
2022/10/04 08:31:15;;;;;;;9.47;8.77;;;12.10;99.90;;;;;;5076045;28;20188;-78
2022/10/04 08:33:51;;;;;;;9.70;9.10;;;12.60;99.90;;;;;;5059999;28;20311;-78
2022/10/04 08:36:23;;;;;;;8.50;7.90;;;12.80;99.90;;;;;;5075810;28;20212;-78
2022/10/04 08:38:56;;;;;;;9.00;8.30;;;13.10;99.90;;;;;;5075618;28;20205;-77
2022/10/04 08:42:00;;;;;;;8.67;8.07;;;13.50;99.90;;;;;;5074376;28;20182;-73
2022/10/04 08:44:55;;;;;;;8.43;7.77;;;13.60;99.90;;;;;;5074511;28;20181;-73
2022/10/04 08:47:49;;;;;;;6.07;5.60;;;14.00;99.90;;;;;;5073886;28;20205;-73
2022/10/04 08:50:30;;;;;;;5.87;5.53;;;14.60;99.90;;;;;;5074402;28;20216;-73
2022/10/04 08:53:15;;;;;;;6.60;6.03;;;14.90;99.90;;;;;;5074214;28;20185;-72
2022/10/04 08:56:00;;;;;;;8.60;7.90;;;15.40;99.90;;;;;;5074013;28;20194;-72
2022/10/04 08:58:34;;;;;;;11.27;10.27;;;16.10;99.90;;;;;;5055479;28;20209;-72
2022/10/04 09:01:44;;;;;;;13.10;11.90;;;16.20;99.90;;;;;;5073946;28;20599;-72
2022/10/04 09:04:49;;;;;;;9.43;8.90;;;16.30;99.90;;;;;;4992247;28;20303;-74
2022/10/04 09:07:40;;;;;;;9.07;6.50;;;16.60;99.90;;;;;;5004847;28;20227;-72
2022/10/04 09:10:38;;;;;;;12.03;11.13;;;17.00;99.90;;;;;;5069155;28;20186;-71
2022/10/04 09:13:16;;;;;;;15.53;14.53;;;17.30;99.90;;;;;;5058986;28;20211;-76
2022/10/04 09:15:52;;;;;;;12.53;11.73;;;17.70;99.90;;;;;;5114406;28;20190;-76
2022/10/04 09:18:42;;;;;;;11.97;11.27;;;18.30;99.90;;;;;;5096048;28;20260;-76
2022/10/04 09:21:38;;;;;;;20.47;19.30;;;18.70;99.90;;;;;;5099285;28;20182;-76
2022/10/04 09:24:33;;;;;;;27.13;25.67;;;19.40;99.90;;;;;;5090738;28;20180;-76
2022/10/04 09:27:11;;;;;;;36.90;34.93;;;19.30;99.90;;;;;;5100280;28;20200;-76
2022/10/04 09:29:50;;;;;;;44.60;42.30;;;19.40;99.90;;;;;;5113708;28;20729;-77
2022/10/04 09:32:51;;;;;;;37.20;35.07;;;19.30;99.90;;;;;;5113877;28;20598;-77
2022/10/04 09:35:16;;;;;;;32.40;30.53;;;19.40;99.90;;;;;;5111962;28;20560;-78
2022/10/04 09:37:50;;;;;;;26.13;24.47;;;19.30;99.90;;;;;;5091777;28;20201;-78
2022/10/04 09:40:19;;;;;;;30.17;28.37;;;19.40;99.90;;;;;;5075939;28;20207;-78
2022/10/04 09:42:56;;;;;;;11.17;10.33;;;19.70;99.90;;;;;;5075729;28;20554;-77
2022/10/04 09:46:20;;;;;;;12.90;11.83;;;19.70;99.90;;;;;;5093663;28;20185;-77
2022/10/04 09:48:57;;;;;;;12.80;11.70;;;20.10;99.90;;;;;;4990920;28;20204;-77
2022/10/04 09:51:48;;;;;;;12.00;11.00;;;20.20;99.90;;;;;;4975748;28;20343;-77
2022/10/04 09:54:39;;;;;;;6.57;6.00;;;20.60;99.90;;;;;;5064389;28;20225;-77
2022/10/04 09:57:12;;;;;;;6.10;5.30;;;21.10;99.90;;;;;;5093166;28;20619;-77
2022/10/04 09:59:56;;;;;;;5.33;4.93;;;20.50;99.90;;;;;;5093487;28;20188;-77
2022/10/04 10:02:43;;;;;;;6.10;5.50;;;20.80;99.90;;;;;;5093791;28;20233;-77
2022/10/04 10:05:46;;;;;;;7.43;6.93;;;20.70;99.90;;;;;;5075633;28;20269;-77
2022/10/04 10:08:44;;;;;;;7.93;5.50;;;20.90;99.90;;;;;;5075211;28;20654;-75
2022/10/04 10:13:57;;;;;;;20.43;19.13;;;21.50;99.90;;;;;;5093100;28;20692;-75
2022/10/04 10:16:37;;;;;;;20.93;19.73;;;21.70;99.90;;;;;;5075314;28;20181;-76
2022/10/04 10:19:26;;;;;;;21.43;20.03;;;22.00;99.90;;;;;;5092668;28;20269;-76
2022/10/04 10:22:19;;;;;;;20.87;19.53;;;22.40;99.90;;;;;;5074786;28;20192;-74
2022/10/04 10:24:51;;;;;;;24.80;23.27;;;22.60;99.90;;;;;;5092957;28;20177;-75
2022/10/04 10:27:33;;;;;;;15.53;14.03;;;22.20;99.90;;;;;;5092431;28;20774;-76
2022/10/04 10:30:15;;;;;;;11.40;10.60;;;22.60;99.90;;;;;;5092712;28;20222;-76
2022/10/04 10:32:59;;;;;;;19.50;18.30;;;22.30;99.90;;;;;;5092607;28;20188;-76
2022/10/04 10:35:41;;;;;;;12.20;11.20;;;22.60;99.90;;;;;;5075035;28;20208;-76
2022/10/04 10:38:30;;;;;;;7.37;6.60;;;23.30;99.90;;;;;;5076957;28;20202;-76
2022/10/04 10:41:08;;;;;;;5.50;4.23;;;23.30;99.90;;;;;;5072204;28;20975;-76
2022/10/04 10:43:41;;;;;;;5.03;4.53;;;24.00;99.20;;;;;;5103408;28;20262;-75
2022/10/04 10:46:22;;;;;;;5.20;4.70;;;23.90;98.00;;;;;;5094851;28;20184;-75
2022/10/04 10:49:17;;;;;;;4.40;4.00;;;23.40;97.90;;;;;;5112459;28;20738;-75
2022/10/04 10:52:10;;;;;;;4.70;4.13;;;23.00;99.30;;;;;;5005166;28;20231;-75
2022/10/04 10:54:54;;;;;;;5.72;4.07;;;23.60;98.60;;;;;;5052915;28;20681;-75
2022/10/04 10:57:50;;;;;;;5.40;4.90;;;24.10;96.70;;;;;;5058977;28;20236;-75
2022/10/04 11:00:23;;;;;;;6.20;4.60;;;24.60;96.40;;;;;;5087952;28;20184;-75
2022/10/04 11:03:10;;;;;;;6.27;4.60;;;24.50;95.10;;;;;;5091809;28;20192;-75
2022/10/04 11:06:00;;;;;;;4.63;3.93;;;24.20;95.70;;;;;;5091879;28;20177;-75
2022/10/04 11:08:45;;;;;;;4.53;4.10;;;24.40;94.70;;;;;;5073582;28;20697;-75
2022/10/04 11:11:33;;;;;;;4.85;4.35;;;24.60;94.60;;;;;;5091740;28;20661;-75
2022/10/04 11:14:10;;;;;;;5.82;4.15;;;25.40;92.70;;;;;;5065502;28;20205;-75
2022/10/04 11:17:13;;;;;;;5.90;4.18;;;25.40;92.90;;;;;;5071374;28;20215;-75
2022/10/04 11:20:04;;;;;;;6.05;4.25;;;25.30;92.20;;;;;;5096547;28;20267;-75
2022/10/04 11:22:46;;;;;;;4.72;4.32;;;25.20;91.70;;;;;;5094027;28;20196;-73
2022/10/04 11:25:14;;;;;;;4.47;4.10;;;25.70;90.90;;;;;;5112137;28;20573;-75
2022/10/04 11:28:20;;;;;;;4.97;4.57;;;25.70;90.80;;;;;;5092945;28;20200;-75
2022/10/04 11:31:01;;;;;;;5.93;5.45;;;26.40;88.90;;;;;;5111938;28;20180;-75
2022/10/04 11:33:57;;;;;;;7.07;6.53;;;26.40;86.80;;;;;;5111625;28;20186;-75
2022/10/04 11:36:50;;;;;;;13.27;12.43;;;26.30;85.10;;;;;;5111634;28;20173;-75
2022/10/04 11:39:54;;;;;;;12.73;11.93;;;26.10;87.20;;;;;;5083037;28;20268;-76
2022/10/04 11:42:57;;;;;;;10.70;9.82;;;26.70;84.10;;;;;;5072243;28;20191;-75
2022/10/04 11:46:00;;;;;;;21.58;20.33;;;26.50;86.10;;;;;;5093584;28;20183;-72
2022/10/04 11:48:38;;;;;;;10.43;9.65;;;26.40;83.90;;;;;;5093118;28;20200;-72
2022/10/04 11:51:29;;;;;;;24.70;23.30;;;26.30;85.30;;;;;;5111388;28;20176;-72
2022/10/04 11:54:00;;;;;;;22.58;21.33;;;27.30;80.20;;;;;;5111370;28;20226;-73
2022/10/04 11:56:25;;;;;;;17.75;16.15;;;27.00;83.40;;;;;;5093516;28;20199;-73
2022/10/04 11:59:11;;;;;;;42.08;39.90;;;27.20;82.00;;;;;;5110622;28;20676;-73
2022/10/04 12:01:43;;;;;;;62.10;58.78;;;27.30;80.40;;;;;;5111048;28;20176;-73
2022/10/04 12:04:29;;;;;;;56.60;53.67;;;28.40;76.10;;;;;;5111120;28;20188;-73
2022/10/04 12:07:21;;;;;;;23.42;22.13;;;28.50;75.40;;;;;;5110669;28;20180;-73
2022/10/04 12:09:55;;;;;;;26.38;24.70;;;29.40;72.30;;;;;;5111357;28;20644;-73
2022/10/04 12:12:39;;;;;;;8.68;7.72;;;29.40;70.90;;;;;;5092755;28;20775;-72
2022/10/04 12:15:37;;;;;;;10.60;9.95;;;29.20;68.10;;;;;;5111145;28;20243;-73
2022/10/04 12:18:13;;;;;;;21.15;20.00;;;27.90;69.70;;;;;;5110901;28;20196;-73
2022/10/04 12:21:15;;;;;;;31.67;30.17;;;26.70;74.10;;;;;;5110897;28;20762;-73
2022/10/04 12:24:03;;;;;;;48.50;45.95;;;26.30;75.70;;;;;;5093048;28;20186;-73
2022/10/04 12:26:54;;;;;;;19.88;18.88;;;25.80;77.70;;;;;;5111026;28;20195;-72
2022/10/04 12:29:39;;;;;;;30.30;28.75;;;26.30;74.30;;;;;;5090116;28;20189;-76
2022/10/04 12:32:09;;;;;;;48.97;46.28;;;26.40;74.70;;;;;;5058148;28;20188;-76
2022/10/04 12:34:50;;;;;;;30.50;28.83;;;26.80;74.40;;;;;;5089610;28;20211;-76
2022/10/04 12:37:32;;;;;;;26.23;24.83;;;27.50;71.60;;;;;;5072040;28;20201;-76
2022/10/04 12:40:49;;;;;;;8.00;7.60;;;27.60;69.30;;;;;;5072294;28;20181;-76
2022/10/04 12:43:24;;;;;;;17.17;16.27;;;27.30;70.70;;;;;;4991076;28;20189;-76
2022/10/04 12:45:58;;;;;;;23.70;22.50;;;27.20;70.40;;;;;;4972963;28;20223;-76
2022/10/04 12:48:58;;;;;;;33.40;31.10;;;26.40;69.80;;;;;;5056591;28;20212;-75
2022/10/04 12:51:44;;;;;;;36.38;34.22;;;26.20;71.60;;;;;;5090641;28;20234;-76
2022/10/04 12:54:37;;;;;;;36.40;34.60;;;26.40;71.40;;;;;;5072809;28;20211;-76
2022/10/04 12:57:54;;;;;;;13.70;13.02;;;26.90;70.00;;;;;;5090423;28;20216;-76
2022/10/04 13:00:27;;;;;;;17.05;16.13;;;27.40;68.20;;;;;;5035491;28;20189;-76
2022/10/04 13:03:16;;;;;;;10.57;9.98;;;28.30;64.50;;;;;;5072490;28;20181;-76
2022/10/04 13:05:46;;;;;;;11.80;10.95;;;28.70;61.50;;;;;;5090510;28;20212;-76
2022/10/04 13:08:39;;;;;;;7.93;6.88;;;29.20;63.80;;;;;;5089840;28;20217;-76
2022/10/04 13:11:11;;;;;;;9.07;8.60;;;29.00;62.80;;;;;;5090548;28;20694;-76
2022/10/04 13:13:53;;;;;;;5.65;5.38;;;28.80;64.70;;;;;;5091351;28;20557;-75
2022/10/04 13:16:22;;;;;;;5.00;4.63;;;30.30;59.60;;;;;;5094158;28;20530;-75
2022/10/04 13:19:05;;;;;;;4.60;4.32;;;31.40;58.00;;;;;;5093379;28;20197;-75
2022/10/04 13:21:46;;;;;;;5.20;4.35;;;31.10;57.90;;;;;;5076120;28;20315;-75
2022/10/04 13:24:53;;;;;;;5.47;5.03;;;30.40;60.10;;;;;;5076659;28;20184;-75
2022/10/04 13:27:57;;;;;;;6.70;5.13;;;30.10;61.80;;;;;;5094121;28;20196;-77
2022/10/04 13:30:42;;;;;;;7.63;4.25;;;28.10;63.00;;;;;;5071877;28;20283;-76
2022/10/04 13:33:29;;;;;;;6.25;5.82;;;26.50;64.80;;;;;;5076012;28;20185;-76
2022/10/04 13:36:04;;;;;;;9.82;9.23;;;25.20;68.30;;;;;;5075984;28;20215;-76
2022/10/04 13:38:32;;;;;;;8.02;7.43;;;24.20;71.00;;;;;;5094821;28;20602;-74
2022/10/04 13:41:23;;;;;;;11.05;10.50;;;23.70;71.60;;;;;;5095178;28;20173;-77
2022/10/04 13:44:11;;;;;;;26.10;24.65;;;23.20;72.90;;;;;;5076113;28;20704;-76
2022/10/04 13:46:52;;;;;;;54.55;51.70;;;22.70;73.60;;;;;;5093691;28;20197;-76
2022/10/04 13:49:39;;;;;;;21.88;20.58;;;22.00;76.90;;;;;;5075800;28;20660;-77
2022/10/04 13:58:44;;;;;;;4.87;4.57;;;20.80;80.40;;;;;;5093142;28;20204;-79
2022/10/04 14:01:10;;;;;;;4.17;3.97;;;20.50;80.70;;;;;;5075649;28;20185;-75
2022/10/04 14:04:03;;;;;;;9.57;8.97;;;20.20;82.30;;;;;;5075505;28;20177;-77